sensor_id;sensor_type;location;lat;lon;timestamp;P1;durP1;ratioP1;P2;durP2;ratioP2
61689;SDS011;47601;52.086;4.878;2022-10-15T00:01:37;0.70;;;0.70;;
61689;SDS011;47601;52.086;4.878;2022-10-15T00:04:03;0.70;;;0.70;;
61689;SDS011;47601;52.086;4.878;2022-10-15T00:06:28;0.88;;;0.77;;
61689;SDS011;47601;52.086;4.878;2022-10-15T00:08:53;1.08;;;0.88;;
61689;SDS011;47601;52.086;4.878;2022-10-15T00:11:20;0.98;;;0.70;;
61689;SDS011;47601;52.086;4.878;2022-10-15T00:13:47;1.20;;;0.80;;
61689;SDS011;47601;52.086;4.878;2022-10-15T00:16:14;0.93;;;0.88;;
61689;SDS011;47601;52.086;4.878;2022-10-15T00:18:41;0.80;;;0.80;;
61689;SDS011;47601;52.086;4.878;2022-10-15T00:21:07;0.68;;;0.60;;
61689;SDS011;47601;52.086;4.878;2022-10-15T00:23:34;0.80;;;0.80;;
61689;SDS011;47601;52.086;4.878;2022-10-15T00:26:02;0.80;;;0.80;;
61689;SDS011;47601;52.086;4.878;2022-10-15T00:28:37;0.65;;;0.65;;
61689;SDS011;47601;52.086;4.878;2022-10-15T00:31:04;0.70;;;0.70;;
61689;SDS011;47601;52.086;4.878;2022-10-15T00:33:32;0.65;;;0.63;;
61689;SDS011;47601;52.086;4.878;2022-10-15T00:36:03;1.10;;;1.00;;
61689;SDS011;47601;52.086;4.878;2022-10-15T00:38:33;1.90;;;0.70;;
61689;SDS011;47601;52.086;4.878;2022-10-15T00:40:59;0.73;;;0.73;;
61689;SDS011;47601;52.086;4.878;2022-10-15T00:48:45;0.60;;;0.60;;
61689;SDS011;47601;52.086;4.878;2022-10-15T00:51:13;0.73;;;0.73;;
61689;SDS011;47601;52.086;4.878;2022-10-15T00:53:39;1.40;;;0.90;;
61689;SDS011;47601;52.086;4.878;2022-10-15T00:56:05;1.00;;;0.93;;
61689;SDS011;47601;52.086;4.878;2022-10-15T00:58:31;0.70;;;0.70;;
61689;SDS011;47601;52.086;4.878;2022-10-15T01:00:58;0.85;;;0.70;;
61689;SDS011;47601;52.086;4.878;2022-10-15T01:03:24;0.70;;;0.70;;
61689;SDS011;47601;52.086;4.878;2022-10-15T01:05:50;0.70;;;0.70;;
61689;SDS011;47601;52.086;4.878;2022-10-15T01:08:16;0.98;;;0.80;;
61689;SDS011;47601;52.086;4.878;2022-10-15T01:10:57;0.70;;;0.70;;
61689;SDS011;47601;52.086;4.878;2022-10-15T01:13:52;0.85;;;0.80;;
61689;SDS011;47601;52.086;4.878;2022-10-15T01:18:53;0.77;;;0.70;;
61689;SDS011;47601;52.086;4.878;2022-10-15T01:21:39;1.05;;;1.00;;
61689;SDS011;47601;52.086;4.878;2022-10-15T01:29:22;1.00;;;0.90;;
61689;SDS011;47601;52.086;4.878;2022-10-15T01:32:33;0.85;;;0.68;;
61689;SDS011;47601;52.086;4.878;2022-10-15T01:37:38;1.05;;;1.00;;
61689;SDS011;47601;52.086;4.878;2022-10-15T01:40:07;0.70;;;0.70;;
61689;SDS011;47601;52.086;4.878;2022-10-15T01:42:56;0.80;;;0.80;;
61689;SDS011;47601;52.086;4.878;2022-10-15T01:45:27;0.98;;;0.88;;
61689;SDS011;47601;52.086;4.878;2022-10-15T01:47:57;0.80;;;0.80;;
61689;SDS011;47601;52.086;4.878;2022-10-15T01:50:26;0.68;;;0.68;;
61689;SDS011;47601;52.086;4.878;2022-10-15T01:52:53;0.60;;;0.60;;
61689;SDS011;47601;52.086;4.878;2022-10-15T01:55:20;0.70;;;0.70;;
61689;SDS011;47601;52.086;4.878;2022-10-15T01:57:47;0.70;;;0.70;;
61689;SDS011;47601;52.086;4.878;2022-10-15T02:00:13;0.85;;;0.77;;
61689;SDS011;47601;52.086;4.878;2022-10-15T02:02:39;0.80;;;0.80;;
61689;SDS011;47601;52.086;4.878;2022-10-15T02:05:05;0.88;;;0.88;;
61689;SDS011;47601;52.086;4.878;2022-10-15T02:07:37;0.80;;;0.80;;
61689;SDS011;47601;52.086;4.878;2022-10-15T02:10:11;0.90;;;0.90;;
61689;SDS011;47601;52.086;4.878;2022-10-15T02:12:47;0.73;;;0.73;;
61689;SDS011;47601;52.086;4.878;2022-10-15T02:15:18;0.80;;;0.80;;
61689;SDS011;47601;52.086;4.878;2022-10-15T02:18:03;0.70;;;0.70;;
61689;SDS011;47601;52.086;4.878;2022-10-15T02:20:33;0.80;;;0.80;;
61689;SDS011;47601;52.086;4.878;2022-10-15T02:23:16;1.02;;;0.75;;
61689;SDS011;47601;52.086;4.878;2022-10-15T02:25:43;1.00;;;0.90;;
61689;SDS011;47601;52.086;4.878;2022-10-15T02:28:09;1.30;;;0.75;;
61689;SDS011;47601;52.086;4.878;2022-10-15T02:30:36;1.10;;;1.00;;
61689;SDS011;47601;52.086;4.878;2022-10-15T02:33:03;0.93;;;0.93;;
61689;SDS011;47601;52.086;4.878;2022-10-15T02:35:29;0.80;;;0.80;;
61689;SDS011;47601;52.086;4.878;2022-10-15T02:37:56;1.10;;;0.70;;
61689;SDS011;47601;52.086;4.878;2022-10-15T02:40:26;1.25;;;0.70;;
61689;SDS011;47601;52.086;4.878;2022-10-15T02:42:53;0.70;;;0.70;;
61689;SDS011;47601;52.086;4.878;2022-10-15T02:45:20;0.90;;;0.90;;
61689;SDS011;47601;52.086;4.878;2022-10-15T02:47:45;1.15;;;0.95;;
61689;SDS011;47601;52.086;4.878;2022-10-15T02:50:11;0.98;;;0.73;;
61689;SDS011;47601;52.086;4.878;2022-10-15T02:52:36;1.05;;;0.95;;
61689;SDS011;47601;52.086;4.878;2022-10-15T02:55:02;0.82;;;0.80;;
61689;SDS011;47601;52.086;4.878;2022-10-15T02:57:27;0.73;;;0.68;;
61689;SDS011;47601;52.086;4.878;2022-10-15T02:59:53;0.70;;;0.70;;
61689;SDS011;47601;52.086;4.878;2022-10-15T03:02:18;0.80;;;0.80;;
61689;SDS011;47601;52.086;4.878;2022-10-15T03:04:44;1.10;;;0.93;;
61689;SDS011;47601;52.086;4.878;2022-10-15T03:07:09;0.98;;;0.98;;
61689;SDS011;47601;52.086;4.878;2022-10-15T03:09:35;0.80;;;0.80;;
61689;SDS011;47601;52.086;4.878;2022-10-15T03:12:00;0.70;;;0.70;;
61689;SDS011;47601;52.086;4.878;2022-10-15T03:14:26;0.80;;;0.77;;
61689;SDS011;47601;52.086;4.878;2022-10-15T03:16:51;1.00;;;0.75;;
61689;SDS011;47601;52.086;4.878;2022-10-15T03:19:17;0.88;;;0.77;;
61689;SDS011;47601;52.086;4.878;2022-10-15T03:21:42;1.10;;;0.80;;
61689;SDS011;47601;52.086;4.878;2022-10-15T03:24:07;0.80;;;0.80;;
61689;SDS011;47601;52.086;4.878;2022-10-15T03:26:33;0.82;;;0.82;;
61689;SDS011;47601;52.086;4.878;2022-10-15T03:28:58;0.88;;;0.88;;
61689;SDS011;47601;52.086;4.878;2022-10-15T03:31:24;0.80;;;0.80;;
61689;SDS011;47601;52.086;4.878;2022-10-15T03:33:49;0.80;;;0.80;;
61689;SDS011;47601;52.086;4.878;2022-10-15T03:36:14;1.17;;;1.08;;
61689;SDS011;47601;52.086;4.878;2022-10-15T03:38:41;0.85;;;0.80;;
61689;SDS011;47601;52.086;4.878;2022-10-15T03:41:06;0.80;;;0.80;;
61689;SDS011;47601;52.086;4.878;2022-10-15T03:43:32;0.80;;;0.80;;
61689;SDS011;47601;52.086;4.878;2022-10-15T03:46:00;0.85;;;0.85;;
61689;SDS011;47601;52.086;4.878;2022-10-15T03:48:26;1.00;;;1.00;;
61689;SDS011;47601;52.086;4.878;2022-10-15T03:50:51;0.73;;;0.73;;
61689;SDS011;47601;52.086;4.878;2022-10-15T03:53:17;1.15;;;1.05;;
61689;SDS011;47601;52.086;4.878;2022-10-15T03:55:42;0.93;;;0.80;;
61689;SDS011;47601;52.086;4.878;2022-10-15T03:58:08;0.80;;;0.80;;
61689;SDS011;47601;52.086;4.878;2022-10-15T04:00:33;0.60;;;0.60;;
61689;SDS011;47601;52.086;4.878;2022-10-15T04:02:58;1.10;;;1.00;;
61689;SDS011;47601;52.086;4.878;2022-10-15T04:05:24;0.80;;;0.80;;
61689;SDS011;47601;52.086;4.878;2022-10-15T04:07:50;1.00;;;0.90;;
61689;SDS011;47601;52.086;4.878;2022-10-15T04:10:15;0.82;;;0.82;;
61689;SDS011;47601;52.086;4.878;2022-10-15T04:12:40;0.90;;;0.90;;
61689;SDS011;47601;52.086;4.878;2022-10-15T04:15:06;0.80;;;0.80;;
61689;SDS011;47601;52.086;4.878;2022-10-15T04:17:32;0.85;;;0.85;;
61689;SDS011;47601;52.086;4.878;2022-10-15T04:19:57;1.05;;;0.80;;
61689;SDS011;47601;52.086;4.878;2022-10-15T04:22:23;0.70;;;0.70;;
61689;SDS011;47601;52.086;4.878;2022-10-15T04:24:48;0.70;;;0.70;;
61689;SDS011;47601;52.086;4.878;2022-10-15T04:27:14;0.90;;;0.90;;
61689;SDS011;47601;52.086;4.878;2022-10-15T04:29:39;1.00;;;0.80;;
61689;SDS011;47601;52.086;4.878;2022-10-15T04:32:04;0.88;;;0.88;;
61689;SDS011;47601;52.086;4.878;2022-10-15T04:34:30;0.70;;;0.70;;
61689;SDS011;47601;52.086;4.878;2022-10-15T04:36:55;0.80;;;0.80;;
61689;SDS011;47601;52.086;4.878;2022-10-15T04:39:21;0.70;;;0.70;;
61689;SDS011;47601;52.086;4.878;2022-10-15T04:41:46;1.00;;;0.60;;
61689;SDS011;47601;52.086;4.878;2022-10-15T04:44:12;0.90;;;0.90;;
61689;SDS011;47601;52.086;4.878;2022-10-15T04:46:37;1.00;;;0.90;;
61689;SDS011;47601;52.086;4.878;2022-10-15T04:49:03;1.00;;;0.90;;
61689;SDS011;47601;52.086;4.878;2022-10-15T04:51:28;1.08;;;0.98;;
61689;SDS011;47601;52.086;4.878;2022-10-15T04:53:54;1.30;;;1.17;;
61689;SDS011;47601;52.086;4.878;2022-10-15T04:56:21;1.10;;;1.00;;
61689;SDS011;47601;52.086;4.878;2022-10-15T04:58:47;1.25;;;1.15;;
61689;SDS011;47601;52.086;4.878;2022-10-15T05:01:15;1.30;;;1.20;;
61689;SDS011;47601;52.086;4.878;2022-10-15T05:03:43;1.15;;;1.02;;
61689;SDS011;47601;52.086;4.878;2022-10-15T05:06:11;1.15;;;1.05;;
61689;SDS011;47601;52.086;4.878;2022-10-15T05:08:38;1.02;;;1.02;;
61689;SDS011;47601;52.086;4.878;2022-10-15T05:11:11;1.30;;;1.20;;
61689;SDS011;47601;52.086;4.878;2022-10-15T05:13:39;1.10;;;1.00;;
61689;SDS011;47601;52.086;4.878;2022-10-15T05:18:41;0.90;;;0.90;;
61689;SDS011;47601;52.086;4.878;2022-10-15T05:21:08;1.33;;;1.20;;
61689;SDS011;47601;52.086;4.878;2022-10-15T05:23:34;1.15;;;1.05;;
61689;SDS011;47601;52.086;4.878;2022-10-15T05:26:01;1.20;;;1.10;;
61689;SDS011;47601;52.086;4.878;2022-10-15T05:28:31;0.90;;;0.90;;
61689;SDS011;47601;52.086;4.878;2022-10-15T05:31:02;1.25;;;1.10;;
61689;SDS011;47601;52.086;4.878;2022-10-15T05:33:28;1.45;;;1.20;;
61689;SDS011;47601;52.086;4.878;2022-10-15T05:35:54;1.40;;;1.30;;
61689;SDS011;47601;52.086;4.878;2022-10-15T05:38:19;0.90;;;0.90;;
61689;SDS011;47601;52.086;4.878;2022-10-15T05:40:48;0.80;;;0.80;;
61689;SDS011;47601;52.086;4.878;2022-10-15T05:43:13;1.23;;;1.10;;
61689;SDS011;47601;52.086;4.878;2022-10-15T05:45:39;1.10;;;1.08;;
61689;SDS011;47601;52.086;4.878;2022-10-15T05:48:05;1.13;;;1.02;;
61689;SDS011;47601;52.086;4.878;2022-10-15T05:50:33;1.00;;;1.00;;
61689;SDS011;47601;52.086;4.878;2022-10-15T05:52:59;1.02;;;0.93;;
61689;SDS011;47601;52.086;4.878;2022-10-15T05:55:24;1.00;;;1.00;;
61689;SDS011;47601;52.086;4.878;2022-10-15T05:57:49;1.35;;;1.05;;
61689;SDS011;47601;52.086;4.878;2022-10-15T06:00:15;1.27;;;1.17;;
61689;SDS011;47601;52.086;4.878;2022-10-15T06:02:40;1.02;;;0.95;;
61689;SDS011;47601;52.086;4.878;2022-10-15T06:05:06;1.30;;;1.20;;
61689;SDS011;47601;52.086;4.878;2022-10-15T06:07:31;1.33;;;1.10;;
61689;SDS011;47601;52.086;4.878;2022-10-15T06:09:57;3.80;;;1.27;;
61689;SDS011;47601;52.086;4.878;2022-10-15T06:12:22;3.30;;;1.50;;
61689;SDS011;47601;52.086;4.878;2022-10-15T06:14:48;1.77;;;1.40;;
61689;SDS011;47601;52.086;4.878;2022-10-15T06:17:13;2.05;;;1.40;;
61689;SDS011;47601;52.086;4.878;2022-10-15T06:19:38;2.00;;;1.45;;
61689;SDS011;47601;52.086;4.878;2022-10-15T06:22:04;2.00;;;1.35;;
61689;SDS011;47601;52.086;4.878;2022-10-15T06:24:30;2.75;;;1.40;;
61689;SDS011;47601;52.086;4.878;2022-10-15T06:26:58;1.90;;;1.50;;
61689;SDS011;47601;52.086;4.878;2022-10-15T06:29:27;2.22;;;1.52;;
61689;SDS011;47601;52.086;4.878;2022-10-15T06:31:52;3.95;;;1.67;;
61689;SDS011;47601;52.086;4.878;2022-10-15T06:34:18;2.30;;;1.80;;
61689;SDS011;47601;52.086;4.878;2022-10-15T06:36:43;3.00;;;1.60;;
61689;SDS011;47601;52.086;4.878;2022-10-15T06:39:09;2.47;;;1.75;;
61689;SDS011;47601;52.086;4.878;2022-10-15T06:41:35;2.70;;;1.70;;
61689;SDS011;47601;52.086;4.878;2022-10-15T06:44:00;4.47;;;2.00;;
61689;SDS011;47601;52.086;4.878;2022-10-15T06:46:25;2.45;;;1.80;;
61689;SDS011;47601;52.086;4.878;2022-10-15T06:48:51;3.05;;;2.33;;
61689;SDS011;47601;52.086;4.878;2022-10-15T06:51:18;4.32;;;2.20;;
61689;SDS011;47601;52.086;4.878;2022-10-15T06:53:44;3.97;;;2.45;;
61689;SDS011;47601;52.086;4.878;2022-10-15T06:56:09;3.00;;;2.70;;
61689;SDS011;47601;52.086;4.878;2022-10-15T06:58:34;3.55;;;2.72;;
61689;SDS011;47601;52.086;4.878;2022-10-15T07:01:00;3.35;;;2.88;;
61689;SDS011;47601;52.086;4.878;2022-10-15T07:03:28;3.38;;;2.92;;
61689;SDS011;47601;52.086;4.878;2022-10-15T07:05:53;4.50;;;3.50;;
61689;SDS011;47601;52.086;4.878;2022-10-15T07:08:19;4.53;;;4.13;;
61689;SDS011;47601;52.086;4.878;2022-10-15T07:10:44;4.95;;;4.22;;
61689;SDS011;47601;52.086;4.878;2022-10-15T07:13:10;5.00;;;4.50;;
61689;SDS011;47601;52.086;4.878;2022-10-15T07:15:35;4.30;;;3.90;;
61689;SDS011;47601;52.086;4.878;2022-10-15T07:18:01;6.65;;;4.40;;
61689;SDS011;47601;52.086;4.878;2022-10-15T07:20:29;5.53;;;4.63;;
61689;SDS011;47601;52.086;4.878;2022-10-15T07:22:55;5.82;;;4.95;;
61689;SDS011;47601;52.086;4.878;2022-10-15T07:25:22;5.00;;;4.50;;
61689;SDS011;47601;52.086;4.878;2022-10-15T07:27:48;5.25;;;4.78;;
61689;SDS011;47601;52.086;4.878;2022-10-15T07:30:14;5.65;;;5.03;;
61689;SDS011;47601;52.086;4.878;2022-10-15T07:32:39;5.50;;;4.85;;
61689;SDS011;47601;52.086;4.878;2022-10-15T07:35:05;5.28;;;4.78;;
61689;SDS011;47601;52.086;4.878;2022-10-15T07:37:31;4.97;;;4.57;;
61689;SDS011;47601;52.086;4.878;2022-10-15T07:39:57;5.30;;;4.80;;
61689;SDS011;47601;52.086;4.878;2022-10-15T07:42:22;4.90;;;4.50;;
61689;SDS011;47601;52.086;4.878;2022-10-15T07:44:48;4.88;;;4.38;;
61689;SDS011;47601;52.086;4.878;2022-10-15T07:47:13;5.30;;;4.88;;
61689;SDS011;47601;52.086;4.878;2022-10-15T07:49:39;5.32;;;4.82;;
61689;SDS011;47601;52.086;4.878;2022-10-15T07:52:04;4.90;;;4.50;;
61689;SDS011;47601;52.086;4.878;2022-10-15T07:56:57;9.00;;;5.07;;
61689;SDS011;47601;52.086;4.878;2022-10-15T07:59:23;5.13;;;4.63;;
61689;SDS011;47601;52.086;4.878;2022-10-15T08:01:48;5.88;;;4.70;;
61689;SDS011;47601;52.086;4.878;2022-10-15T08:04:15;5.63;;;4.82;;
61689;SDS011;47601;52.086;4.878;2022-10-15T08:06:41;6.65;;;4.65;;
61689;SDS011;47601;52.086;4.878;2022-10-15T08:09:06;5.22;;;4.70;;
61689;SDS011;47601;52.086;4.878;2022-10-15T08:11:32;4.70;;;4.30;;
61689;SDS011;47601;52.086;4.878;2022-10-15T08:13:58;4.80;;;4.40;;
61689;SDS011;47601;52.086;4.878;2022-10-15T08:16:23;4.72;;;4.30;;
61689;SDS011;47601;52.086;4.878;2022-10-15T08:18:49;5.30;;;4.80;;
61689;SDS011;47601;52.086;4.878;2022-10-15T08:21:14;5.03;;;4.40;;
61689;SDS011;47601;52.086;4.878;2022-10-15T08:23:40;4.63;;;4.22;;
61689;SDS011;47601;52.086;4.878;2022-10-15T08:26:06;4.78;;;4.35;;
61689;SDS011;47601;52.086;4.878;2022-10-15T08:28:32;4.40;;;4.00;;
61689;SDS011;47601;52.086;4.878;2022-10-15T08:30:58;4.30;;;4.00;;
61689;SDS011;47601;52.086;4.878;2022-10-15T08:33:24;4.60;;;4.20;;
61689;SDS011;47601;52.086;4.878;2022-10-15T08:35:50;5.15;;;4.57;;
61689;SDS011;47601;52.086;4.878;2022-10-15T08:38:16;3.92;;;3.63;;
61689;SDS011;47601;52.086;4.878;2022-10-15T08:40:45;4.10;;;3.80;;
61689;SDS011;47601;52.086;4.878;2022-10-15T08:43:16;3.88;;;3.58;;
61689;SDS011;47601;52.086;4.878;2022-10-15T08:45:50;4.07;;;3.67;;
61689;SDS011;47601;52.086;4.878;2022-10-15T08:48:24;3.72;;;3.38;;
61689;SDS011;47601;52.086;4.878;2022-10-15T08:51:05;4.35;;;3.95;;
61689;SDS011;47601;52.086;4.878;2022-10-15T08:53:38;3.67;;;3.38;;
61689;SDS011;47601;52.086;4.878;2022-10-15T08:56:11;3.42;;;3.20;;
61689;SDS011;47601;52.086;4.878;2022-10-15T08:58:50;3.58;;;3.33;;
61689;SDS011;47601;52.086;4.878;2022-10-15T09:06:39;3.80;;;3.50;;
61689;SDS011;47601;52.086;4.878;2022-10-15T09:09:06;3.20;;;2.97;;
61689;SDS011;47601;52.086;4.878;2022-10-15T09:14:24;3.70;;;3.40;;
61689;SDS011;47601;52.086;4.878;2022-10-15T09:16:51;3.70;;;3.40;;
61689;SDS011;47601;52.086;4.878;2022-10-15T09:19:18;3.33;;;3.05;;
61689;SDS011;47601;52.086;4.878;2022-10-15T09:21:46;3.33;;;3.00;;
61689;SDS011;47601;52.086;4.878;2022-10-15T09:24:14;3.45;;;2.83;;
61689;SDS011;47601;52.086;4.878;2022-10-15T09:37:45;2.60;;;2.42;;
61689;SDS011;47601;52.086;4.878;2022-10-15T09:43:00;2.83;;;2.63;;
61689;SDS011;47601;52.086;4.878;2022-10-15T09:45:26;2.55;;;2.35;;
61689;SDS011;47601;52.086;4.878;2022-10-15T09:47:53;2.75;;;2.55;;
61689;SDS011;47601;52.086;4.878;2022-10-15T09:50:21;2.80;;;2.60;;
61689;SDS011;47601;52.086;4.878;2022-10-15T10:01:18;2.72;;;2.53;;
61689;SDS011;47601;52.086;4.878;2022-10-15T10:03:44;2.40;;;2.20;;
61689;SDS011;47601;52.086;4.878;2022-10-15T10:06:15;2.30;;;2.20;;
61689;SDS011;47601;52.086;4.878;2022-10-15T10:08:54;2.45;;;2.25;;
61689;SDS011;47601;52.086;4.878;2022-10-15T10:11:21;2.55;;;2.35;;
61689;SDS011;47601;52.086;4.878;2022-10-15T10:16:13;2.35;;;2.25;;
61689;SDS011;47601;52.086;4.878;2022-10-15T10:18:40;2.58;;;2.38;;
61689;SDS011;47601;52.086;4.878;2022-10-15T10:21:22;1.90;;;1.80;;
61689;SDS011;47601;52.086;4.878;2022-10-15T10:23:50;2.30;;;2.10;;
61689;SDS011;47601;52.086;4.878;2022-10-15T10:26:16;2.20;;;2.10;;
61689;SDS011;47601;52.086;4.878;2022-10-15T10:31:07;1.80;;;1.70;;
61689;SDS011;47601;52.086;4.878;2022-10-15T10:33:35;2.03;;;1.92;;
61689;SDS011;47601;52.086;4.878;2022-10-15T10:36:06;1.92;;;1.83;;
61689;SDS011;47601;52.086;4.878;2022-10-15T10:38:34;2.00;;;1.90;;
61689;SDS011;47601;52.086;4.878;2022-10-15T10:41:06;2.20;;;2.10;;
61689;SDS011;47601;52.086;4.878;2022-10-15T10:43:49;2.38;;;1.90;;
61689;SDS011;47601;52.086;4.878;2022-10-15T10:46:18;2.40;;;2.20;;
61689;SDS011;47601;52.086;4.878;2022-10-15T10:48:46;2.00;;;1.90;;
61689;SDS011;47601;52.086;4.878;2022-10-15T10:51:14;2.10;;;1.97;;
61689;SDS011;47601;52.086;4.878;2022-10-15T10:53:54;1.83;;;1.73;;
61689;SDS011;47601;52.086;4.878;2022-10-15T10:56:27;2.15;;;1.95;;
61689;SDS011;47601;52.086;4.878;2022-10-15T10:58:58;2.20;;;2.10;;
61689;SDS011;47601;52.086;4.878;2022-10-15T11:01:26;1.98;;;1.70;;
61689;SDS011;47601;52.086;4.878;2022-10-15T11:03:52;3.53;;;2.13;;
61689;SDS011;47601;52.086;4.878;2022-10-15T11:06:27;2.55;;;2.15;;
61689;SDS011;47601;52.086;4.878;2022-10-15T11:11:34;2.25;;;1.65;;
61689;SDS011;47601;52.086;4.878;2022-10-15T11:14:14;2.15;;;1.95;;
61689;SDS011;47601;52.086;4.878;2022-10-15T11:16:49;2.92;;;2.00;;
61689;SDS011;47601;52.086;4.878;2022-10-15T11:19:33;2.85;;;2.13;;
61689;SDS011;47601;52.086;4.878;2022-10-15T11:22:11;2.25;;;2.00;;
61689;SDS011;47601;52.086;4.878;2022-10-15T11:25:03;2.33;;;2.13;;
61689;SDS011;47601;52.086;4.878;2022-10-15T11:35:42;4.32;;;2.40;;
61689;SDS011;47601;52.086;4.878;2022-10-15T11:44:08;3.10;;;2.30;;
61689;SDS011;47601;52.086;4.878;2022-10-15T11:46:55;3.08;;;2.10;;
61689;SDS011;47601;52.086;4.878;2022-10-15T11:49:53;3.20;;;2.00;;
61689;SDS011;47601;52.086;4.878;2022-10-15T11:52:52;3.35;;;2.50;;
61689;SDS011;47601;52.086;4.878;2022-10-15T11:56:22;4.43;;;2.28;;
61689;SDS011;47601;52.086;4.878;2022-10-15T11:58:22;4.82;;;2.42;;
61689;SDS011;47601;52.086;4.878;2022-10-15T12:00:59;2.38;;;2.00;;
61689;SDS011;47601;52.086;4.878;2022-10-15T12:03:29;3.03;;;2.10;;
61689;SDS011;47601;52.086;4.878;2022-10-15T12:06:02;3.25;;;2.30;;
61689;SDS011;47601;52.086;4.878;2022-10-15T12:08:33;2.80;;;2.17;;
61689;SDS011;47601;52.086;4.878;2022-10-15T12:16:18;2.60;;;2.10;;
61689;SDS011;47601;52.086;4.878;2022-10-15T12:19:03;2.47;;;2.05;;
61689;SDS011;47601;52.086;4.878;2022-10-15T12:21:39;2.85;;;2.00;;
61689;SDS011;47601;52.086;4.878;2022-10-15T12:24:53;2.47;;;1.90;;
61689;SDS011;47601;52.086;4.878;2022-10-15T12:29:43;3.53;;;2.17;;
61689;SDS011;47601;52.086;4.878;2022-10-15T12:32:35;2.42;;;1.95;;
61689;SDS011;47601;52.086;4.878;2022-10-15T12:37:46;2.88;;;2.10;;
61689;SDS011;47601;52.086;4.878;2022-10-15T12:42:54;2.00;;;1.60;;
61689;SDS011;47601;52.086;4.878;2022-10-15T12:45:39;2.90;;;2.03;;
61689;SDS011;47601;52.086;4.878;2022-10-15T12:50:46;2.58;;;1.90;;
61689;SDS011;47601;52.086;4.878;2022-10-15T12:56:12;2.15;;;1.77;;
61689;SDS011;47601;52.086;4.878;2022-10-15T12:58:38;2.22;;;1.65;;
61689;SDS011;47601;52.086;4.878;2022-10-15T13:01:05;2.10;;;1.80;;
61689;SDS011;47601;52.086;4.878;2022-10-15T13:03:40;2.33;;;1.70;;
61689;SDS011;47601;52.086;4.878;2022-10-15T13:13:45;3.35;;;1.60;;
61689;SDS011;47601;52.086;4.878;2022-10-15T13:16:11;3.60;;;1.77;;
61689;SDS011;47601;52.086;4.878;2022-10-15T13:18:49;3.53;;;1.95;;
61689;SDS011;47601;52.086;4.878;2022-10-15T13:21:17;3.28;;;1.60;;
61689;SDS011;47601;52.086;4.878;2022-10-15T13:23:44;1.75;;;1.63;;
61689;SDS011;47601;52.086;4.878;2022-10-15T13:26:21;2.30;;;1.90;;
61689;SDS011;47601;52.086;4.878;2022-10-15T13:28:50;3.47;;;1.80;;
61689;SDS011;47601;52.086;4.878;2022-10-15T13:31:23;1.63;;;1.40;;
61689;SDS011;47601;52.086;4.878;2022-10-15T13:33:51;3.00;;;1.70;;
61689;SDS011;47601;52.086;4.878;2022-10-15T13:36:22;2.05;;;1.65;;
61689;SDS011;47601;52.086;4.878;2022-10-15T13:38:54;1.80;;;1.60;;
61689;SDS011;47601;52.086;4.878;2022-10-15T13:41:30;1.95;;;1.67;;
61689;SDS011;47601;52.086;4.878;2022-10-15T13:43:58;2.22;;;1.70;;
61689;SDS011;47601;52.086;4.878;2022-10-15T13:46:46;2.00;;;1.33;;
61689;SDS011;47601;52.086;4.878;2022-10-15T13:49:11;2.20;;;1.50;;
61689;SDS011;47601;52.086;4.878;2022-10-15T13:51:38;2.10;;;1.60;;
61689;SDS011;47601;52.086;4.878;2022-10-15T13:54:09;2.22;;;1.60;;
61689;SDS011;47601;52.086;4.878;2022-10-15T13:56:41;1.88;;;1.35;;
61689;SDS011;47601;52.086;4.878;2022-10-15T13:59:14;1.73;;;1.30;;
61689;SDS011;47601;52.086;4.878;2022-10-15T14:01:44;1.73;;;1.40;;
61689;SDS011;47601;52.086;4.878;2022-10-15T14:04:15;1.88;;;1.52;;
61689;SDS011;47601;52.086;4.878;2022-10-15T14:06:41;1.45;;;1.30;;
61689;SDS011;47601;52.086;4.878;2022-10-15T14:09:30;1.75;;;1.30;;
61689;SDS011;47601;52.086;4.878;2022-10-15T14:11:58;1.98;;;1.38;;
61689;SDS011;47601;52.086;4.878;2022-10-15T14:14:28;1.15;;;1.10;;
61689;SDS011;47601;52.086;4.878;2022-10-15T14:16:53;1.35;;;1.25;;
61689;SDS011;47601;52.086;4.878;2022-10-15T14:19:20;1.38;;;1.27;;
61689;SDS011;47601;52.086;4.878;2022-10-15T14:21:51;1.30;;;1.20;;
61689;SDS011;47601;52.086;4.878;2022-10-15T14:24:20;1.33;;;1.10;;
61689;SDS011;47601;52.086;4.878;2022-10-15T14:26:48;1.27;;;1.17;;
61689;SDS011;47601;52.086;4.878;2022-10-15T14:29:15;2.38;;;1.40;;
61689;SDS011;47601;52.086;4.878;2022-10-15T14:31:51;1.25;;;1.15;;
61689;SDS011;47601;52.086;4.878;2022-10-15T14:34:30;1.38;;;1.27;;
61689;SDS011;47601;52.086;4.878;2022-10-15T14:37:25;1.40;;;1.20;;
61689;SDS011;47601;52.086;4.878;2022-10-15T14:42:31;1.15;;;1.00;;
61689;SDS011;47601;52.086;4.878;2022-10-15T14:45:08;1.20;;;1.10;;
61689;SDS011;47601;52.086;4.878;2022-10-15T14:47:57;1.20;;;1.10;;
61689;SDS011;47601;52.086;4.878;2022-10-15T14:50:29;1.50;;;1.10;;
61689;SDS011;47601;52.086;4.878;2022-10-15T14:52:56;1.15;;;1.05;;
61689;SDS011;47601;52.086;4.878;2022-10-15T14:57:48;1.25;;;1.10;;
61689;SDS011;47601;52.086;4.878;2022-10-15T15:00:25;1.20;;;1.10;;
61689;SDS011;47601;52.086;4.878;2022-10-15T15:02:55;1.00;;;1.00;;
61689;SDS011;47601;52.086;4.878;2022-10-15T15:05:24;1.55;;;1.00;;
61689;SDS011;47601;52.086;4.878;2022-10-15T15:07:51;1.30;;;1.20;;
61689;SDS011;47601;52.086;4.878;2022-10-15T15:10:17;1.05;;;1.00;;
61689;SDS011;47601;52.086;4.878;2022-10-15T15:12:50;1.65;;;1.20;;
61689;SDS011;47601;52.086;4.878;2022-10-15T15:15:20;1.10;;;1.00;;
61689;SDS011;47601;52.086;4.878;2022-10-15T15:17:47;1.15;;;1.05;;
61689;SDS011;47601;52.086;4.878;2022-10-15T15:20:13;1.13;;;1.00;;
61689;SDS011;47601;52.086;4.878;2022-10-15T15:22:39;1.30;;;1.02;;
61689;SDS011;47601;52.086;4.878;2022-10-15T15:25:11;0.98;;;0.90;;
61689;SDS011;47601;52.086;4.878;2022-10-15T15:27:38;1.20;;;1.10;;
61689;SDS011;47601;52.086;4.878;2022-10-15T15:30:05;1.48;;;1.13;;
61689;SDS011;47601;52.086;4.878;2022-10-15T15:32:31;1.50;;;1.20;;
61689;SDS011;47601;52.086;4.878;2022-10-15T15:34:57;1.13;;;0.85;;
61689;SDS011;47601;52.086;4.878;2022-10-15T15:37:23;1.70;;;1.10;;
61689;SDS011;47601;52.086;4.878;2022-10-15T15:39:49;1.38;;;1.10;;
61689;SDS011;47601;52.086;4.878;2022-10-15T15:42:19;0.70;;;0.70;;
61689;SDS011;47601;52.086;4.878;2022-10-15T15:44:45;0.82;;;0.82;;
61689;SDS011;47601;52.086;4.878;2022-10-15T15:47:11;1.08;;;0.88;;
61689;SDS011;47601;52.086;4.878;2022-10-15T15:49:37;0.85;;;0.82;;
61689;SDS011;47601;52.086;4.878;2022-10-15T15:52:07;1.23;;;1.00;;
61689;SDS011;47601;52.086;4.878;2022-10-15T15:54:37;1.10;;;1.00;;
61689;SDS011;47601;52.086;4.878;2022-10-15T15:57:03;1.00;;;0.90;;
61689;SDS011;47601;52.086;4.878;2022-10-15T15:59:29;0.80;;;0.80;;
61689;SDS011;47601;52.086;4.878;2022-10-15T16:01:54;1.08;;;1.00;;
61689;SDS011;47601;52.086;4.878;2022-10-15T16:04:19;0.88;;;0.80;;
61689;SDS011;47601;52.086;4.878;2022-10-15T16:06:45;0.70;;;0.68;;
61689;SDS011;47601;52.086;4.878;2022-10-15T16:09:13;1.02;;;1.00;;
61689;SDS011;47601;52.086;4.878;2022-10-15T16:11:40;1.00;;;0.90;;
61689;SDS011;47601;52.086;4.878;2022-10-15T16:14:05;1.42;;;0.90;;
61689;SDS011;47601;52.086;4.878;2022-10-15T16:16:31;0.85;;;0.85;;
61689;SDS011;47601;52.086;4.878;2022-10-15T16:18:57;1.17;;;0.90;;
61689;SDS011;47601;52.086;4.878;2022-10-15T16:21:23;0.85;;;0.85;;
61689;SDS011;47601;52.086;4.878;2022-10-15T16:23:49;0.70;;;0.70;;
61689;SDS011;47601;52.086;4.878;2022-10-15T16:26:15;0.90;;;0.77;;
61689;SDS011;47601;52.086;4.878;2022-10-15T16:28:41;1.20;;;1.00;;
61689;SDS011;47601;52.086;4.878;2022-10-15T16:31:13;0.80;;;0.80;;
61689;SDS011;47601;52.086;4.878;2022-10-15T16:33:40;0.85;;;0.70;;
61689;SDS011;47601;52.086;4.878;2022-10-15T16:36:05;1.17;;;0.93;;
61689;SDS011;47601;52.086;4.878;2022-10-15T16:38:31;0.73;;;0.70;;
61689;SDS011;47601;52.086;4.878;2022-10-15T16:40:56;0.80;;;0.80;;
61689;SDS011;47601;52.086;4.878;2022-10-15T16:43:21;1.00;;;0.90;;